MUHG/HOG METAR and TAF weather

Enter ICAO airport designator
Station Type Date Time Source
MUHG METAR 2019/02/20 06:50 UTC NOAA

MUHG 200650Z 13011KT 9000 SCT025 24/20 Q1017


Station Type Date Time Source
MUHG Decoded METAR 2019/02/20 06:50 UTC NOAA

Holguin Civ / Mil , Cuba (MUHG) 20-47N 076-19W
Feb 20, 2019 - 01:50 AM EST / 2019.02.20 0650 UTC
Wind: from the SE (130 degrees) at 13 MPH (11 KT):0
Visibility: 5 mile(s):0
Sky conditions: partly cloudy
Temperature: 75 F (24 C)
Dew Point: 68 F (20 C)
Relative Humidity: 78%
Pressure (altimeter): 30.03 in. Hg (1017 hPa)
ob: MUHG 200650Z 13011KT 9000 SCT025 24/20 Q1017
cycle: 7

Station Type Date Time Source
MUHG TAF 2019/02/20 06:03 UTC NOAA

TAF MUHG 200500Z 2006/2106 VRB03KT 9000 SCT020
BECMG 2015/2017 09010KT
BECMG 2101/2103 VRB03KT


Example: see airport list